Accueil
METAR-TAF:

METAR-TAF

Aéroports :

Oxford, Angleterre

Aéroport d'Oxford Kidlington

latitude: 51-50-13N, longitude: 1-19-12W, altitude: 82 m

Observation

Le bulletin a été fait il y a 20 minutes, à 07:50 UTC
Vent 14 kt de ouest/sud-ouest
Température 9°C
Humidité 76%
Pression 1011 hPa
Visibilité 10 km ou plus
Nuages épars à une hauteur de 4200 ft

METAR: EGTK 220750Z 25014KT 9999 SCT042 09/05 Q1011

Heure: 09:10 (08:10 UTC)

Prévision

Le bulletin a été fait il y a 2 heures et 41 minutes, à 05:29 UTC
Prévision valable du 22 à 06 UTC au 22 à 15 UTC
Vent 14 kt de ouest
Visibilité 10 km ou plus
Nuages épars à une hauteur de 3000 ft
Temporairement
du 22 à 06 UTC au 22 à 15 UTC
Vent 17 kt de ouest avec des rafales jusqu'à 27 kt
Visibilité: 8000 m
faibles averses de pluie

TAF: EGTK 220529Z 2206/2215 26014KT 9999 SCT030 TEMPO 2206/2215 28017G27KT 8000 -SHRA

Observations et prévisions météorologiques de plus de 4000 aéroports (messages METAR et TAF).

Les stations disponibles sont représentées par des disques jaunes et rouges sur la carte.

Passer la souris dessus pour voir le nom de la station.

Cliquer dessus pour voir les observations et prévisions météorologiques.

Pour changer de carte: cliquez sur les boutons verts avec une croix noire pour zoomer, sur le bouton vert avec un tiret pour effectuer un zoom arrière, ou sur les flèches vertes pour les cartes adjacentes.


METAR-TAF: